Ampthill, VA

8:27 PM EST on March 06, 2015 (GMT -0500)
Dinwiddie County | Change Station
CLOSE
Current Station
Airport
Location: Petersburg,
Elevation: 194 ft
Nearby Weather Stations
Active Advisory: Flood Warning Active Notice: Record Report, Local Storm Report

Elev 194 ft 37.18 °N, 77.51 °W | Updated 12 minutes ago

Clear
Clear
22 °F
Feels Like 22 °F
N
0
Wind Variable Wind from North

Today
High -- | Low -- °F
--% Chance of Precip.
Yesterday
High -- | Low -- °F
Precip. -- in
6:34 AM 6:08 PM
Full, 98% visible
Pressure 30.46 in
Visibility 10.0 miles
Clouds Clear
Dew Point 19 °F
Humidity 87%
Rainfall 0.02 in
Snow Depth Not available.
UV 0 out of 12
Pollen 4.00 out of 12
Air Quality Not available.
Flu Activity Not available.
METAR KPTB 070115Z AUTO 00000KT 10SM CLR M05/M07 A3046 RMK AO2 T10551074

More Conditions Fewer Conditions

Pressure 30.46 in
Visibility 10.0 miles
Clouds Clear
Dew Point 19 °F
Humidity 87%
Rainfall 0.02 in
Snow Depth Not available.
UV 0 out of 12
Pollen 4.00 out of 12
Air Quality Not available.
Flu Activity Not available.
METAR KPTB 070115Z AUTO 00000KT 10SM CLR M05/M07 A3046 RMK AO2 T10551074

More Conditions Fewer Conditions

10-Day Weather Forecast

Almanac

Astronomy

Mar. 06, 2015 Rise Set
Actual Time
Civil Twilight
Nautical Twilight
Astronomical Twilight
Moon
Length of Visible Light
Length of Day
Tomorrow will be .
, % of the Moon is Illuminated

Today's Extremes

State Highs State Lows

Community

WunderPhotos

Upload Photos

1,803,482 photos uploaded!

WunderBlogs® & News

Nearby

Air Quality

  Air Quality AQ Index Pollutant
Not available.

Snow Depth

Station Depth Elevation

Earthquake Activity

City Distance Mag. Time & Date
Minimum magnitude displayed is 2.5.

Coastal Water Temperatures

Place Temperature

Nearby Weather Stations

Flood Warning
Statement as of 5:36 PM EST on March 06, 2015

The National Weather Service in Wakefield VA has issued a

* Flood Warning for
the James River at Richmond Westham.
* From late tonight to Saturday evening... or until the warning is
cancelled.
* At 04:30 PM Friday the stage was 9.2 feet.
* Minor flooding is forecast.
* Flood stage is 12.0 feet.
* Forecast... the river is expected to rise above flood stage after
midnight and continue to rise to near 12.3 feet by tomorrow
morning. The river will fall below flood stage by tomorrow
afternoon.
* At 12.0 feet... flood stage. Minor flooding along both banks, no
damage at this level.
This river level is comparable to a previous crest of 12.4 feet on
Mar 31 1991.


Lat... Lon 3770 7780 3756 7744 3747 7749 3753 7770
      3760 7785